This is the latest recevied weather packets stored in our database for station/object OK1JIL-13. If no packets are shown the sender has not sent any weather packets the latest 10 day(s).
| Time | Temp. | Humidity | Pressure | Rain* | Wind** | Luminosity | Snow |
|---|---|---|---|---|---|---|---|
| 1777193581 | 10° C | 29% | 1021.2 hPa | - | - | - | - |
| 1777192983 | 7.22° C | 31% | 1021.2 hPa | - | - | - | - |
| 1777192380 | 10° C | 29% | 1021 hPa | - | - | - | - |
| 1777191780 | 10° C | 31% | 1020.9 hPa | - | - | - | - |
| 1777191180 | 8.33° C | 31% | 1020.9 hPa | - | - | - | - |
| 1777190580 | 7.78° C | 36% | 1021 hPa | - | - | - | - |
| 1777189980 | 7.78° C | 38% | 1020.8 hPa | - | - | - | - |
| 1777189380 | 6.11° C | 40% | 1020.6 hPa | - | - | - | - |
| 1777188780 | 6.67° C | 40% | 1020.5 hPa | - | - | - | - |
| 1777188180 | 6.11° C | 44% | 1020.3 hPa | - | - | - | - |
| 1777187580 | 7.22° C | 42% | 1020.3 hPa | - | - | - | - |
| 1777186980 | 7.22° C | 44% | 1020 hPa | - | - | - | - |
| 1777186380 | 5.56° C | 47% | 1019.8 hPa | - | - | - | - |
| 1777185780 | 6.67° C | 47% | 1019.6 hPa | - | - | - | - |
| 1777185180 | 6.11° C | 47% | 1019.6 hPa | - | - | - | - |
| 1777184580 | 5° C | 51% | 1019.5 hPa | - | - | - | - |
| 1777183980 | 5° C | 51% | 1019.3 hPa | - | - | - | - |
| 1777183380 | 5° C | 51% | 1019 hPa | - | - | - | - |
| 1777182780 | 4.44° C | 54% | 1019 hPa | - | - | - | - |
| 1777182180 | 6.11° C | 52% | 1018.6 hPa | - | - | - | - |
| 1777181580 | 3.33° C | 58% | 1018.5 hPa | - | - | - | - |
| 1777180980 | 4.44° C | 54% | 1018.5 hPa | - | - | - | - |
| 1777180379 | 4.44° C | 55% | 1018.3 hPa | - | - | - | - |
| 1777179780 | 3.89° C | 56% | 1018 hPa | - | - | - | - |
| 1777179180 | 3.33° C | 59% | 1017.8 hPa | - | - | - | - |
* Rain since midnight (hover to see other rain measurements)
** Current wind speed in m/s (hover to see current wind gust speed)